createdAt,value
2023-04-25T00:00:52.045Z,17.18
2023-04-25T00:01:52.032Z,17.18
2023-04-25T00:02:52.170Z,17.18
2023-04-25T00:03:52.392Z,17.18
2023-04-25T00:04:52.399Z,17.18
2023-04-25T00:05:52.101Z,17.18
2023-04-25T00:06:52.038Z,17.27
2023-04-25T00:07:52.066Z,17.18
2023-04-25T00:08:52.039Z,17.27
2023-04-25T00:09:52.054Z,17.18
2023-04-25T00:10:52.039Z,17.18
2023-04-25T00:11:52.039Z,17.18
2023-04-25T00:12:52.037Z,17.18
2023-04-25T00:13:52.035Z,17.18
2023-04-25T00:14:52.036Z,17.18
2023-04-25T00:15:52.074Z,17.18
2023-04-25T00:16:52.036Z,17.27
2023-04-25T00:17:52.059Z,17.27
2023-04-25T00:18:52.036Z,17.18
2023-04-25T00:19:52.032Z,17.27
2023-04-25T00:20:52.034Z,17.18
2023-04-25T00:21:52.034Z,17.27
2023-04-25T00:22:52.038Z,17.18
2023-04-25T00:23:52.322Z,17.08
2023-04-25T00:24:52.034Z,17.27
2023-04-25T00:25:52.033Z,17.18
2023-04-25T00:26:52.037Z,17.08
2023-04-25T00:27:52.028Z,17.18
2023-04-25T00:28:52.032Z,17.27
2023-04-25T00:29:52.022Z,17.27
2023-04-25T00:30:52.051Z,17.18
2023-04-25T00:31:52.095Z,17.08
2023-04-25T00:32:52.076Z,17.18
2023-04-25T00:33:52.282Z,17.18
2023-04-25T00:34:52.031Z,17.18
2023-04-25T00:35:52.019Z,17.27
2023-04-25T00:36:52.029Z,17.18
2023-04-25T00:37:52.021Z,17.27
2023-04-25T00:38:52.025Z,17.18
2023-04-25T00:39:52.056Z,17.27
2023-04-25T00:40:52.026Z,17.27
2023-04-25T00:41:52.018Z,17.18
2023-04-25T00:42:52.024Z,17.18
2023-04-25T00:43:52.139Z,17.18
2023-04-25T00:44:52.024Z,17.18
2023-04-25T00:45:52.016Z,17.18
2023-04-25T00:46:52.046Z,17.18
2023-04-25T00:47:52.073Z,17.18
2023-04-25T00:48:52.025Z,17.18
2023-04-25T00:49:52.014Z,17.18
2023-04-25T00:50:52.021Z,17.18
2023-04-25T00:51:52.017Z,17.08
2023-04-25T00:52:52.019Z,17.27
2023-04-25T00:53:52.301Z,17.18
2023-04-25T00:54:52.020Z,17.18
2023-04-25T00:55:52.036Z,17.18
2023-04-25T00:56:52.033Z,17.18
2023-04-25T00:57:52.011Z,17.27
2023-04-25T00:58:52.037Z,17.18
2023-04-25T00:59:52.011Z,17.18
2023-04-25T01:00:52.057Z,17.18
2023-04-25T01:01:52.039Z,17.27
2023-04-25T01:02:52.159Z,17.18
2023-04-25T01:03:52.501Z,17.18
2023-04-25T01:04:52.010Z,17.27
2023-04-25T01:05:52.031Z,17.18
2023-04-25T01:06:52.006Z,17.18
2023-04-25T01:07:52.014Z,17.18
2023-04-25T01:08:52.008Z,17.08
2023-04-25T01:09:52.015Z,17.08
2023-04-25T01:10:52.012Z,17.18
2023-04-25T01:11:52.040Z,17.18
2023-04-25T01:12:52.012Z,17.18
2023-04-25T01:13:52.393Z,17.18
2023-04-25T01:14:52.010Z,17.18
2023-04-25T01:15:52.029Z,17.08
2023-04-25T01:16:52.036Z,17.08
2023-04-25T01:17:52.060Z,17.18
2023-04-25T01:18:52.005Z,17.08
2023-04-25T01:19:52.010Z,17.18
2023-04-25T01:20:52.005Z,17.18
2023-04-25T01:21:52.013Z,17.08
2023-04-25T01:22:52.001Z,17.08
2023-04-25T01:23:52.493Z,17.18
2023-04-25T01:24:52.001Z,17.08
2023-04-25T01:25:52.012Z,17.08
2023-04-25T01:26:52.006Z,17.08
2023-04-25T01:27:52.034Z,17.08
2023-04-25T01:28:52.002Z,17.08
2023-04-25T01:29:52.007Z,17.18
2023-04-25T01:30:51.998Z,17.18
2023-04-25T01:31:52.069Z,17.08
2023-04-25T01:32:52.027Z,17.08
2023-04-25T01:33:52.357Z,17.27
2023-04-25T01:34:51.996Z,17.18
2023-04-25T01:35:52.004Z,17.18
2023-04-25T01:36:52.004Z,17.18
2023-04-25T01:37:52.014Z,17.27
2023-04-25T01:38:51.998Z,17.08
2023-04-25T01:39:52.021Z,17.18
2023-04-25T01:40:51.996Z,17.18
2023-04-25T01:41:52.003Z,17.18
2023-04-25T01:42:51.996Z,17.18
2023-04-25T01:43:52.325Z,17.18
2023-04-25T01:44:51.999Z,17.18
2023-04-25T01:45:52.035Z,17.18
2023-04-25T01:46:51.994Z,17.18
2023-04-25T01:47:52.013Z,17.08
2023-04-25T01:48:51.993Z,17.18
2023-04-25T01:49:52.000Z,17.08
2023-04-25T01:50:51.992Z,17.18
2023-04-25T01:51:52.000Z,17.18
2023-04-25T01:52:51.991Z,17.08
2023-04-25T01:53:52.250Z,17.18
2023-04-25T01:54:51.995Z,16.98
2023-04-25T01:55:52.000Z,17.08
2023-04-25T01:56:52.002Z,16.98
2023-04-25T01:57:52.004Z,17.08
2023-04-25T01:58:52.096Z,17.08
2023-04-25T01:59:52.030Z,17.08
2023-04-25T02:00:51.987Z,17.08
2023-04-25T02:01:52.112Z,16.98
2023-04-25T02:02:52.209Z,17.18
2023-04-25T02:03:52.338Z,17.27
2023-04-25T02:04:52.048Z,16.98
2023-04-25T02:05:51.996Z,17.08
2023-04-25T02:06:51.993Z,17.27
2023-04-25T02:07:52.130Z,17.08
2023-04-25T02:08:51.986Z,17.27
2023-04-25T02:09:51.998Z,17.08
2023-04-25T02:10:51.986Z,17.18
2023-04-25T02:11:51.998Z,17.18
2023-04-25T02:12:51.993Z,17.08
2023-04-25T02:13:52.239Z,17.08
2023-04-25T02:14:51.989Z,17.08
2023-04-25T02:15:52.126Z,17.08
2023-04-25T02:16:52.166Z,17.08
2023-04-25T02:17:52.012Z,17.18
2023-04-25T02:18:51.988Z,17.27
2023-04-25T02:19:51.991Z,17.18
2023-04-25T02:20:51.990Z,17.18
2023-04-25T02:21:51.993Z,17.18
2023-04-25T02:22:52.012Z,17.18
2023-04-25T02:23:52.286Z,17.08
2023-04-25T02:24:51.996Z,17.08
2023-04-25T02:25:52.012Z,17.08
2023-04-25T02:26:51.987Z,17.27
2023-04-25T02:27:51.991Z,17.18
2023-04-25T02:28:51.980Z,17.08
2023-04-25T02:29:52.007Z,17.18
2023-04-25T02:30:51.988Z,17.18
2023-04-25T02:31:52.106Z,17.18
2023-04-25T02:32:52.048Z,17.18
2023-04-25T02:33:52.242Z,17.08
2023-04-25T02:34:51.982Z,17.18
2023-04-25T02:35:51.988Z,17.08
2023-04-25T02:36:51.991Z,17.08
2023-04-25T02:37:52.010Z,17.18
2023-04-25T02:38:51.978Z,17.08
2023-04-25T02:39:52.013Z,17.08
2023-04-25T02:40:51.982Z,17.08
2023-04-25T02:41:51.985Z,17.18
2023-04-25T02:42:51.979Z,16.98
2023-04-25T02:43:52.419Z,16.98
2023-04-25T02:44:51.976Z,17.18
2023-04-25T02:45:51.990Z,17.08
2023-04-25T02:46:52.046Z,17.27
2023-04-25T02:47:52.081Z,17.08
2023-04-25T02:48:51.977Z,17.08
2023-04-25T02:49:52.001Z,16.98
2023-04-25T02:50:51.987Z,16.98
2023-04-25T02:51:51.985Z,17.18
2023-04-25T02:52:51.974Z,17.08
2023-04-25T02:53:52.202Z,17.27
2023-04-25T02:54:51.988Z,17.18
2023-04-25T02:55:51.980Z,17.08
2023-04-25T02:56:51.970Z,17.27
2023-04-25T02:57:51.990Z,16.98
2023-04-25T02:58:51.975Z,16.98
2023-04-25T02:59:52.134Z,16.98
2023-04-25T03:00:52.016Z,16.98
2023-04-25T03:01:51.977Z,16.98
2023-04-25T03:02:52.093Z,17.08
2023-04-25T03:03:52.411Z,17.18
2023-04-25T03:04:51.968Z,17.27
2023-04-25T03:05:51.972Z,17.18
2023-04-25T03:06:51.966Z,17.18
2023-04-25T03:07:51.973Z,16.98
2023-04-25T03:08:51.985Z,16.98
2023-04-25T03:09:51.972Z,17.18
2023-04-25T03:10:51.973Z,16.98
2023-04-25T03:11:51.973Z,16.98
2023-04-25T03:12:51.966Z,17.27
2023-04-25T03:13:52.209Z,17.08
2023-04-25T03:14:51.966Z,17.27
2023-04-25T03:15:51.970Z,17.08
2023-04-25T03:16:51.993Z,17.27
2023-04-25T03:17:51.998Z,17.18
2023-04-25T03:18:51.978Z,17.27
2023-04-25T03:19:51.992Z,17.08
2023-04-25T03:20:51.965Z,17.18
2023-04-25T03:21:51.972Z,17.27
2023-04-25T03:22:51.964Z,17.18
2023-04-25T03:23:52.168Z,17.27
2023-04-25T03:24:51.966Z,17.18
2023-04-25T03:25:51.982Z,17.27
2023-04-25T03:26:51.960Z,17.27
2023-04-25T03:27:51.969Z,17.27
2023-04-25T03:28:51.960Z,17.27
2023-04-25T03:29:51.969Z,17.27
2023-04-25T03:30:51.964Z,17.18
2023-04-25T03:31:52.017Z,17.27
2023-04-25T03:32:52.024Z,17.18
2023-04-25T03:33:52.161Z,17.27
2023-04-25T03:34:51.960Z,17.36
2023-04-25T03:35:51.990Z,17.18
2023-04-25T03:36:51.965Z,17.27
2023-04-25T03:37:51.966Z,17.18
2023-04-25T03:38:51.969Z,17.27
2023-04-25T03:39:51.969Z,17.27
2023-04-25T03:40:51.958Z,17.27
2023-04-25T03:41:51.965Z,17.27
2023-04-25T03:42:51.968Z,17.18
2023-04-25T03:43:52.348Z,17.18
2023-04-25T03:44:51.958Z,17.27
2023-04-25T03:45:52.016Z,17.18
2023-04-25T03:46:51.952Z,17.27
2023-04-25T03:47:52.056Z,17.27
2023-04-25T03:48:51.952Z,17.18
2023-04-25T03:49:51.960Z,17.27
2023-04-25T03:50:51.951Z,17.27
2023-04-25T03:51:51.983Z,17.27
2023-04-25T03:52:51.953Z,17.27
2023-04-25T03:53:52.172Z,17.27
2023-04-25T03:54:51.969Z,17.27
2023-04-25T03:55:51.961Z,17.27
2023-04-25T03:56:51.950Z,17.27
2023-04-25T03:57:51.957Z,17.18
2023-04-25T03:58:51.951Z,17.18
2023-04-25T03:59:51.959Z,17.27
2023-04-25T04:00:51.961Z,17.18
2023-04-25T04:01:51.955Z,17.18
2023-04-25T04:02:52.028Z,17.18
2023-04-25T04:03:52.325Z,17.27
2023-04-25T04:04:52.153Z,17.18
2023-04-25T04:05:52.117Z,17.18
2023-04-25T04:06:51.951Z,17.27
2023-04-25T04:07:51.997Z,17.18
2023-04-25T04:08:51.946Z,17.27
2023-04-25T04:09:51.954Z,17.18
2023-04-25T04:10:51.949Z,17.08
2023-04-25T04:11:51.952Z,17.18
2023-04-25T04:12:51.947Z,17.27
2023-04-25T04:13:52.165Z,17.18
2023-04-25T04:14:51.945Z,17.18
2023-04-25T04:15:51.982Z,17.08
2023-04-25T04:16:51.944Z,16.88
2023-04-25T04:17:52.048Z,16.88
2023-04-25T04:18:51.942Z,16.69
2023-04-25T04:19:51.956Z,16.78
2023-04-25T04:20:51.960Z,16.69
2023-04-25T04:21:51.950Z,16.78
2023-04-25T04:22:51.945Z,16.78
2023-04-25T04:23:52.181Z,16.69
2023-04-25T04:24:51.943Z,16.88
2023-04-25T04:25:51.949Z,16.88
2023-04-25T04:26:51.941Z,16.78
2023-04-25T04:27:51.951Z,16.87
2023-04-25T04:28:51.939Z,16.97
2023-04-25T04:29:51.951Z,16.68
2023-04-25T04:30:51.943Z,16.59
2023-04-25T04:31:52.338Z,16.68
2023-04-25T04:32:52.047Z,16.68
2023-04-25T04:33:52.186Z,16.78
2023-04-25T04:34:51.938Z,16.78
2023-04-25T04:35:51.945Z,16.39
2023-04-25T04:36:51.936Z,16.49
2023-04-25T04:37:51.941Z,16.49
2023-04-25T04:38:51.936Z,16.39
2023-04-25T04:39:51.965Z,16.68
2023-04-25T04:40:51.945Z,16.19
2023-04-25T04:41:51.941Z,16.29
2023-04-25T04:42:51.930Z,16.39
2023-04-25T04:43:52.283Z,16.39
2023-04-25T04:44:51.932Z,16.39
2023-04-25T04:45:51.941Z,16.09
2023-04-25T04:46:51.979Z,16.29
2023-04-25T04:47:51.945Z,16.19
2023-04-25T04:48:51.947Z,16.09
2023-04-25T04:49:51.938Z,16.39
2023-04-25T04:50:51.929Z,16.09
2023-04-25T04:51:51.936Z,16.29
2023-04-25T04:52:51.935Z,16.29
2023-04-25T04:53:52.367Z,16.39
2023-04-25T04:54:51.930Z,16.29
2023-04-25T04:55:51.954Z,16.19
2023-04-25T04:56:51.930Z,16.09
2023-04-25T04:57:51.932Z,16.19
2023-04-25T04:58:51.929Z,16.09
2023-04-25T04:59:51.933Z,16.19
2023-04-25T05:00:51.980Z,16.19
2023-04-25T05:01:51.932Z,16.29
2023-04-25T05:02:52.041Z,16.29
2023-04-25T05:03:52.340Z,16.29
2023-04-25T05:04:51.963Z,16.19
2023-04-25T05:05:51.928Z,16.00
2023-04-25T05:06:51.923Z,15.81
2023-04-25T05:07:51.931Z,15.91
2023-04-25T05:08:51.918Z,15.81
2023-04-25T05:09:51.926Z,15.81
2023-04-25T05:10:51.920Z,16.00
2023-04-25T05:11:51.948Z,15.81
2023-04-25T05:12:51.915Z,16.29
2023-04-25T05:13:52.122Z,16.19
2023-04-25T05:14:51.918Z,15.91
2023-04-25T05:15:51.923Z,15.91
2023-04-25T05:16:52.062Z,16.00
2023-04-25T05:17:51.992Z,15.91
2023-04-25T05:18:51.920Z,15.91
2023-04-25T05:19:51.918Z,15.91
2023-04-25T05:20:51.935Z,15.91
2023-04-25T05:21:51.911Z,16.00
2023-04-25T05:22:51.922Z,16.00
2023-04-25T05:23:52.185Z,15.91
2023-04-25T05:24:53.345Z,15.91
2023-04-25T05:25:51.910Z,16.00
2023-04-25T05:26:51.916Z,16.00
2023-04-25T05:27:51.952Z,16.00
2023-04-25T05:28:51.952Z,16.00
2023-04-25T05:29:51.908Z,16.09
2023-04-25T05:30:51.919Z,16.00
2023-04-25T05:31:51.943Z,16.19
2023-04-25T05:32:51.953Z,16.19
2023-04-25T05:33:52.150Z,16.09
2023-04-25T05:34:51.952Z,16.09
2023-04-25T05:35:51.903Z,16.19
2023-04-25T05:36:51.907Z,16.09
2023-04-25T05:37:51.908Z,16.19
2023-04-25T05:38:51.911Z,16.87
2023-04-25T05:39:51.902Z,16.97
2023-04-25T05:40:51.913Z,16.29
2023-04-25T05:41:51.900Z,15.81
2023-04-25T05:42:51.915Z,15.91
2023-04-25T05:43:53.546Z,16.00
2023-04-25T05:44:51.904Z,16.19
2023-04-25T05:45:51.938Z,16.19
2023-04-25T05:46:51.899Z,16.19
2023-04-25T05:47:51.931Z,15.81
2023-04-25T05:48:51.897Z,15.81
2023-04-25T05:49:51.888Z,15.91
2023-04-25T05:50:51.900Z,15.81
2023-04-25T05:51:51.896Z,15.91
2023-04-25T05:52:51.921Z,15.91
2023-04-25T05:53:52.214Z,16.00
2023-04-25T05:54:51.901Z,16.01
2023-04-25T05:55:51.888Z,15.62
2023-04-25T05:56:51.912Z,15.62
2023-04-25T05:57:51.907Z,15.62
2023-04-25T05:58:51.898Z,15.62
2023-04-25T05:59:51.905Z,15.81
2023-04-25T06:00:51.892Z,15.62
2023-04-25T06:01:51.897Z,15.52
2023-04-25T06:02:51.994Z,15.62
2023-04-25T06:03:52.299Z,15.42
2023-04-25T06:04:52.184Z,15.14
2023-04-25T06:05:51.978Z,15.33
2023-04-25T06:06:51.889Z,15.33
2023-04-25T06:07:51.880Z,15.33
2023-04-25T06:08:51.900Z,15.33
2023-04-25T06:09:51.895Z,15.23
2023-04-25T06:10:51.894Z,14.94
2023-04-25T06:11:51.881Z,15.23
2023-04-25T06:12:51.900Z,14.94
2023-04-25T06:13:52.194Z,14.94
2023-04-25T06:14:51.887Z,15.04
2023-04-25T06:15:51.960Z,15.33
2023-04-25T06:16:51.887Z,15.04
2023-04-25T06:17:51.947Z,15.33
2023-04-25T06:18:51.886Z,15.23
2023-04-25T06:19:51.877Z,15.14
2023-04-25T06:20:51.887Z,15.72
2023-04-25T06:21:51.881Z,15.24
2023-04-25T06:22:51.884Z,15.24
2023-04-25T06:23:52.054Z,15.24
2023-04-25T06:24:51.882Z,15.24
2023-04-25T06:25:51.874Z,15.24
2023-04-25T06:26:51.881Z,14.85
2023-04-25T06:27:51.873Z,14.95
2023-04-25T06:28:51.881Z,15.14
2023-04-25T06:29:51.874Z,15.05
2023-04-25T06:30:51.952Z,15.14
2023-04-25T06:31:51.968Z,15.14
2023-04-25T06:32:51.923Z,15.14
2023-04-25T06:33:52.099Z,15.14
2023-04-25T06:34:51.880Z,15.14
2023-04-25T06:35:51.873Z,15.05
2023-04-25T06:36:51.880Z,15.05
2023-04-25T06:37:51.879Z,15.44
2023-04-25T06:38:52.117Z,15.34
2023-04-25T06:39:51.872Z,15.14
2023-04-25T06:40:51.881Z,15.14
2023-04-25T06:41:51.873Z,15.14
2023-04-25T06:42:51.878Z,15.14
2023-04-25T06:43:51.874Z,15.14
2023-04-25T06:44:51.879Z,15.15
2023-04-25T06:45:51.878Z,15.14
2023-04-25T06:46:51.953Z,15.14
2023-04-25T06:47:51.915Z,15.15
2023-04-25T06:48:52.118Z,15.14
2023-04-25T06:49:51.880Z,15.05
2023-04-25T06:50:51.879Z,15.05
2023-04-25T06:51:51.871Z,15.05
2023-04-25T06:52:51.879Z,15.05
2023-04-25T06:53:51.875Z,14.85
2023-04-25T06:54:51.877Z,15.25
2023-04-25T06:55:51.878Z,15.14
2023-04-25T06:56:51.901Z,15.25
2023-04-25T06:57:51.880Z,15.25
2023-04-25T06:58:52.250Z,15.34
2023-04-25T06:59:51.877Z,15.05
2023-04-25T07:00:51.881Z,15.15
2023-04-25T07:01:51.882Z,15.25
2023-04-25T07:02:51.945Z,15.15
2023-04-25T07:03:52.308Z,15.05
2023-04-25T07:04:51.958Z,15.05
2023-04-25T07:05:51.893Z,15.05
2023-04-25T07:06:51.892Z,14.95
2023-04-25T07:07:51.871Z,15.25
2023-04-25T07:08:52.175Z,15.34
2023-04-25T07:09:51.891Z,15.34
2023-04-25T07:10:51.888Z,15.25
2023-04-25T07:11:51.881Z,15.15
2023-04-25T07:12:51.898Z,15.05
2023-04-25T07:13:51.877Z,15.64
2023-04-25T07:14:51.881Z,15.54
2023-04-25T07:15:51.876Z,15.54
2023-04-25T07:16:51.994Z,15.64
2023-04-25T07:17:51.908Z,15.73
2023-04-25T07:18:52.131Z,15.64
2023-04-25T07:19:51.899Z,15.64
2023-04-25T07:20:51.882Z,15.64
2023-04-25T07:21:54.064Z,15.54
2023-04-25T07:22:51.885Z,15.54
2023-04-25T07:23:51.888Z,15.73
2023-04-25T07:24:51.896Z,15.73
2023-04-25T07:25:51.877Z,16.02
2023-04-25T07:26:51.884Z,15.64
2023-04-25T07:27:51.891Z,16.02
2023-04-25T07:28:52.225Z,15.92
2023-04-25T07:29:51.880Z,15.83
2023-04-25T07:30:51.885Z,15.92
2023-04-25T07:31:51.933Z,15.73
2023-04-25T07:32:51.923Z,15.92
2023-04-25T07:33:51.876Z,15.92
2023-04-25T07:34:51.887Z,15.92
2023-04-25T07:35:51.906Z,16.02
2023-04-25T07:36:51.887Z,15.83
2023-04-25T07:37:51.879Z,15.83
2023-04-25T07:38:52.142Z,16.80
2023-04-25T07:39:51.877Z,18.74
2023-04-25T07:40:51.896Z,17.58
2023-04-25T07:41:54.490Z,16.51
2023-04-25T07:42:51.888Z,16.12
2023-04-25T07:43:51.880Z,17.19
2023-04-25T07:44:51.886Z,16.51
2023-04-25T07:45:51.948Z,16.41
2023-04-25T07:46:51.884Z,16.31
2023-04-25T07:47:51.889Z,16.41
2023-04-25T07:48:52.193Z,16.12
2023-04-25T07:49:51.879Z,16.21
2023-04-25T07:50:51.894Z,16.22
2023-04-25T07:51:51.902Z,16.31
2023-04-25T07:52:51.890Z,16.41
2023-04-25T07:53:51.882Z,16.31
2023-04-25T07:54:51.885Z,16.71
2023-04-25T07:55:51.877Z,16.50
2023-04-25T07:56:53.284Z,16.60
2023-04-25T07:57:51.879Z,16.79
2023-04-25T07:58:52.102Z,16.69
2023-04-25T07:59:51.878Z,16.69
2023-04-25T08:00:51.885Z,16.99
2023-04-25T08:01:51.875Z,16.89
2023-04-25T08:02:52.066Z,16.79
2023-04-25T08:03:52.054Z,16.69
2023-04-25T08:04:52.092Z,16.79
2023-04-25T08:05:51.934Z,16.79
2023-04-25T08:06:51.889Z,16.60
2023-04-25T08:07:51.901Z,16.89
2023-04-25T08:08:52.132Z,16.99
2023-04-25T08:09:51.877Z,17.18
2023-04-25T08:10:51.889Z,17.08
2023-04-25T08:11:51.877Z,17.18
2023-04-25T08:12:51.884Z,17.08
2023-04-25T08:13:51.878Z,17.27
2023-04-25T08:14:51.881Z,17.18
2023-04-25T08:15:51.900Z,17.46
2023-04-25T08:16:51.883Z,17.46
2023-04-25T08:17:51.897Z,17.36
2023-04-25T08:18:52.267Z,17.36
2023-04-25T08:19:51.877Z,17.46
2023-04-25T08:20:51.882Z,17.46
2023-04-25T08:21:51.876Z,17.46
2023-04-25T08:22:51.892Z,17.46
2023-04-25T08:23:51.897Z,17.76
2023-04-25T08:24:51.899Z,17.66
2023-04-25T08:25:51.877Z,17.76
2023-04-25T08:26:51.886Z,17.85
2023-04-25T08:27:51.874Z,17.76
2023-04-25T08:28:52.131Z,17.76
2023-04-25T08:29:51.885Z,17.95
2023-04-25T08:30:51.879Z,18.05
2023-04-25T08:31:51.911Z,17.95
2023-04-25T08:32:51.907Z,18.05
2023-04-25T08:33:51.872Z,18.24
2023-04-25T08:34:51.887Z,18.15
2023-04-25T08:35:51.876Z,18.24
2023-04-25T08:36:51.882Z,18.24
2023-04-25T08:37:51.871Z,18.43
2023-04-25T08:38:53.989Z,18.24
2023-04-25T08:39:51.901Z,18.24
2023-04-25T08:40:51.876Z,18.15
2023-04-25T08:41:51.870Z,18.05
2023-04-25T08:42:51.875Z,18.15
2023-04-25T08:43:51.869Z,18.15
2023-04-25T08:44:51.897Z,18.15
2023-04-25T08:45:51.869Z,18.15
2023-04-25T08:46:51.885Z,18.05
2023-04-25T08:47:51.939Z,18.05
2023-04-25T08:48:53.420Z,18.15
2023-04-25T08:49:51.868Z,18.24
2023-04-25T08:50:51.874Z,18.15
2023-04-25T08:51:51.866Z,18.24
2023-04-25T08:52:51.869Z,17.95
2023-04-25T08:53:54.408Z,17.95
2023-04-25T08:54:51.873Z,18.05
2023-04-25T08:55:51.881Z,18.05
2023-04-25T08:56:51.871Z,18.05
2023-04-25T08:57:51.860Z,18.05
2023-04-25T08:58:52.095Z,18.15
2023-04-25T08:59:51.897Z,18.05
2023-04-25T09:00:51.907Z,18.05
2023-04-25T09:01:51.890Z,18.05
2023-04-25T09:02:51.957Z,18.15
2023-04-25T09:03:51.953Z,18.15
2023-04-25T09:04:51.860Z,18.15
2023-04-25T09:05:51.857Z,18.05
2023-04-25T09:06:51.861Z,18.05
2023-04-25T09:07:51.856Z,18.15
2023-04-25T09:08:51.863Z,18.24
2023-04-25T09:09:51.856Z,18.24
2023-04-25T09:10:51.866Z,18.15
2023-04-25T09:11:51.912Z,18.15
2023-04-25T09:12:51.959Z,18.15
2023-04-25T09:13:52.018Z,18.15
2023-04-25T09:14:51.860Z,18.15
2023-04-25T09:15:51.854Z,18.24
2023-04-25T09:16:51.881Z,18.24
2023-04-25T09:17:51.899Z,18.05
2023-04-25T09:18:51.858Z,18.24
2023-04-25T09:19:51.849Z,18.33
2023-04-25T09:21:51.854Z,18.15
2023-04-25T09:22:51.858Z,18.24
2023-04-25T09:23:52.064Z,18.33
2023-04-25T09:24:51.859Z,18.25
2023-04-25T09:25:51.853Z,18.15
2023-04-25T09:26:51.859Z,18.43
2023-04-25T09:27:51.941Z,18.43
2023-04-25T09:28:51.858Z,18.35
2023-04-25T09:29:51.848Z,18.43
2023-04-25T09:30:51.861Z,18.35
2023-04-25T09:31:51.877Z,18.25
2023-04-25T09:32:51.878Z,18.24
2023-04-25T09:33:52.328Z,18.15
2023-04-25T09:34:51.930Z,18.64
2023-04-25T09:35:51.854Z,18.44
2023-04-25T09:36:51.848Z,18.35
2023-04-25T09:37:51.852Z,18.25
2023-04-25T09:38:51.860Z,18.35
2023-04-25T09:39:51.861Z,18.24
2023-04-25T09:40:51.848Z,18.15
2023-04-25T09:41:51.857Z,18.35
2023-04-25T09:42:51.849Z,18.05
2023-04-25T09:43:51.920Z,18.15
2023-04-25T09:44:51.843Z,18.25
2023-04-25T09:45:51.871Z,18.15
2023-04-25T09:46:51.844Z,18.15
2023-04-25T09:47:51.915Z,18.35
2023-04-25T09:48:51.850Z,18.35
2023-04-25T09:49:51.853Z,18.44
2023-04-25T09:50:51.844Z,18.15
2023-04-25T09:51:51.861Z,18.35
2023-04-25T09:52:51.845Z,18.15
2023-04-25T09:53:52.363Z,18.44
2023-04-25T09:54:51.845Z,18.35
2023-04-25T09:55:51.851Z,18.44
2023-04-25T09:56:51.845Z,18.15
2023-04-25T09:57:51.860Z,18.25
2023-04-25T09:58:52.579Z,18.15
2023-04-25T09:59:52.151Z,18.15
2023-04-25T10:00:51.844Z,18.35
2023-04-25T10:01:51.993Z,18.15
2023-04-25T10:02:51.902Z,18.25
2023-04-25T10:03:52.033Z,18.44
2023-04-25T10:04:51.904Z,18.25
2023-04-25T10:05:51.857Z,18.05
2023-04-25T10:06:51.847Z,18.15
2023-04-25T10:07:51.852Z,18.15
2023-04-25T10:08:51.844Z,18.25
2023-04-25T10:09:51.895Z,18.15
2023-04-25T10:10:51.849Z,18.15
2023-04-25T10:11:51.852Z,18.05
2023-04-25T10:12:51.865Z,18.44
2023-04-25T10:13:52.239Z,18.25
2023-04-25T10:14:51.839Z,18.05
2023-04-25T10:15:52.018Z,18.05
2023-04-25T10:16:51.843Z,17.96
2023-04-25T10:17:51.896Z,18.05
2023-04-25T10:18:51.854Z,17.76
2023-04-25T10:19:51.850Z,17.66
2023-04-25T10:20:53.923Z,17.96
2023-04-25T10:21:51.855Z,17.66
2023-04-25T10:22:51.841Z,17.86
2023-04-25T10:23:52.004Z,17.76
2023-04-25T10:24:51.841Z,17.85
2023-04-25T10:25:51.848Z,17.66
2023-04-25T10:26:51.837Z,17.66
2023-04-25T10:27:51.852Z,18.05
2023-04-25T10:28:51.853Z,17.76
2023-04-25T10:29:51.849Z,18.15
2023-04-25T10:30:51.889Z,17.76
2023-04-25T10:31:51.903Z,17.66
2023-04-25T10:32:51.862Z,17.85
2023-04-25T10:33:52.282Z,17.95
2023-04-25T10:34:51.838Z,18.05
2023-04-25T10:35:51.846Z,17.66
2023-04-25T10:36:51.839Z,17.56
2023-04-25T10:37:51.847Z,17.66
2023-04-25T10:38:51.836Z,17.95
2023-04-25T10:39:51.848Z,17.76
2023-04-25T10:40:51.836Z,17.46
2023-04-25T10:41:51.844Z,17.46
2023-04-25T10:42:51.835Z,17.56
2023-04-25T10:43:52.292Z,17.56
2023-04-25T10:44:51.846Z,17.46
2023-04-25T10:45:51.842Z,17.27
2023-04-25T10:46:51.898Z,17.36
2023-04-25T10:47:51.933Z,17.36
2023-04-25T10:48:51.839Z,17.27
2023-04-25T10:49:51.847Z,17.36
2023-04-25T10:50:51.834Z,17.08
2023-04-25T10:51:55.694Z,17.08
2023-04-25T10:52:51.830Z,17.18
2023-04-25T10:53:52.027Z,17.08
2023-04-25T10:54:51.832Z,16.69
2023-04-25T10:55:51.838Z,16.78
2023-04-25T10:56:51.859Z,16.69
2023-04-25T10:57:51.840Z,16.79
2023-04-25T10:58:53.088Z,16.69
2023-04-25T10:59:51.838Z,16.39
2023-04-25T11:01:51.911Z,16.49
2023-04-25T11:02:51.907Z,16.59
2023-04-25T11:03:52.191Z,16.39
2023-04-25T11:04:52.053Z,16.49
2023-04-25T11:05:58.096Z,16.30
2023-04-25T11:06:53.830Z,16.20
2023-04-25T11:08:00.037Z,16.11
2023-04-25T11:08:51.940Z,16.30
2023-04-25T11:09:51.847Z,16.01
2023-04-25T11:10:52.271Z,15.81
2023-04-25T11:11:51.838Z,16.02
2023-04-25T11:12:51.841Z,16.11
2023-04-25T11:13:51.834Z,16.01
2023-04-25T11:14:51.834Z,15.62
2023-04-25T11:15:58.902Z,16.20
2023-04-25T11:16:51.900Z,15.81
2023-04-25T11:17:51.869Z,15.72
2023-04-25T11:18:52.099Z,15.81
2023-04-25T11:19:51.884Z,16.11
2023-04-25T11:20:51.829Z,16.11
2023-04-25T11:21:51.841Z,16.30
2023-04-25T11:22:52.864Z,16.21
2023-04-25T11:23:51.933Z,15.91
2023-04-25T11:24:51.827Z,16.01
2023-04-25T11:25:51.834Z,15.91
2023-04-25T11:26:51.824Z,15.91
2023-04-25T11:27:51.836Z,15.92
2023-04-25T11:28:51.833Z,15.81
2023-04-25T11:29:51.829Z,15.92
2023-04-25T11:30:51.822Z,15.81
2023-04-25T11:31:51.891Z,16.01
2023-04-25T11:32:51.839Z,15.81
2023-04-25T11:33:52.189Z,15.91
2023-04-25T11:34:51.820Z,15.91
2023-04-25T11:35:51.921Z,15.91
2023-04-25T11:36:51.820Z,15.91
2023-04-25T11:37:51.841Z,15.91
2023-04-25T11:38:51.822Z,16.30
2023-04-25T11:39:51.832Z,15.91
2023-04-25T11:40:51.820Z,16.49
2023-04-25T11:41:51.829Z,16.30
2023-04-25T11:42:52.418Z,16.39
2023-04-25T11:43:52.076Z,16.59
2023-04-25T11:44:51.816Z,16.49
2023-04-25T11:45:52.016Z,16.69
2023-04-25T11:46:51.826Z,16.78
2023-04-25T11:47:51.899Z,16.69
2023-04-25T11:48:52.284Z,16.59
2023-04-25T11:49:51.827Z,16.69
2023-04-25T11:50:51.822Z,16.98
2023-04-25T11:51:51.916Z,16.98
2023-04-25T11:52:51.817Z,16.98
2023-04-25T11:53:51.827Z,16.99
2023-04-25T11:54:51.817Z,16.98
2023-04-25T11:55:52.164Z,16.60
2023-04-25T11:56:51.815Z,16.99
2023-04-25T11:57:51.821Z,16.89
2023-04-25T11:58:51.815Z,16.99
2023-04-25T11:59:51.827Z,16.99
2023-04-25T12:00:51.817Z,16.79
2023-04-25T12:01:51.834Z,16.60
2023-04-25T12:02:52.032Z,16.79
2023-04-25T12:03:52.038Z,16.50
2023-04-25T12:04:52.049Z,16.59
2023-04-25T12:05:52.017Z,16.41
2023-04-25T12:06:51.958Z,16.41
2023-04-25T12:07:51.878Z,16.11
2023-04-25T12:08:52.057Z,16.20
2023-04-25T12:09:51.820Z,16.11
2023-04-25T12:10:51.810Z,16.11
2023-04-25T12:11:51.824Z,16.11
2023-04-25T12:12:51.813Z,15.81
2023-04-25T12:13:51.819Z,16.11
2023-04-25T12:14:51.812Z,16.20
2023-04-25T12:15:51.865Z,15.91
2023-04-25T12:16:51.812Z,16.11
2023-04-25T12:17:51.863Z,16.11
2023-04-25T12:18:52.039Z,16.20
2023-04-25T12:19:51.819Z,16.30
2023-04-25T12:20:51.820Z,16.39
2023-04-25T12:21:59.277Z,16.39
2023-04-25T12:22:51.808Z,16.39
2023-04-25T12:23:51.862Z,16.69
2023-04-25T12:24:51.811Z,16.59
2023-04-25T12:25:51.820Z,16.39
2023-04-25T12:26:51.806Z,16.49
2023-04-25T12:27:51.823Z,16.49
2023-04-25T12:28:52.044Z,16.69
2023-04-25T12:29:51.815Z,16.49
2023-04-25T12:30:51.809Z,16.69
2023-04-25T12:31:51.932Z,16.88
2023-04-25T12:32:51.819Z,16.98
2023-04-25T12:33:51.814Z,16.69
2023-04-25T12:34:51.819Z,16.78
2023-04-25T12:35:51.814Z,16.69
2023-04-25T12:36:51.804Z,16.98
2023-04-25T12:37:51.811Z,16.98
2023-04-25T12:38:52.185Z,17.18
2023-04-25T12:39:51.965Z,17.27
2023-04-25T12:40:51.803Z,17.18
2023-04-25T12:41:51.812Z,17.08
2023-04-25T12:42:51.802Z,17.26
2023-04-25T12:43:51.809Z,17.27
2023-04-25T12:44:51.811Z,17.08
2023-04-25T12:45:51.840Z,17.27
2023-04-25T12:46:51.843Z,17.46
2023-04-25T12:47:51.837Z,17.36
2023-04-25T12:48:52.011Z,17.36
2023-04-25T12:49:51.805Z,17.36
2023-04-25T12:50:51.798Z,17.46
2023-04-25T12:51:51.816Z,17.46
2023-04-25T12:52:51.807Z,17.46
2023-04-25T12:53:51.805Z,17.46
2023-04-25T12:54:51.811Z,17.76